Time;durP1;ratioP1;P1;durP2;ratioP2;P2;SDS_P1;SDS_P2;PMS_P1;PMS_P2;Temp;Humidity;BMP_temperature;BMP_pressure;BME280_temperature;BME280_humidity;BME280_pressure;Samples;Min_cycle;Max_cycle;Signal;HPM_P1;HPM_P2
2022/06/19 00:00:09;;;;;;;4.43;2.70;;;;;;;;;;5023770;28;20249;-86
2022/06/19 00:02:36;;;;;;;3.78;2.80;;;;;;;;;;5024914;28;20199;-86
2022/06/19 00:05:02;;;;;;;3.08;2.80;;;;;;;;;;5025635;28;20711;-85
2022/06/19 00:07:28;;;;;;;3.75;2.70;;;;;;;;;;5025054;28;20187;-85
2022/06/19 00:09:54;;;;;;;4.40;2.80;;;;;;;;;;5023724;28;20226;-86
2022/06/19 00:12:20;;;;;;;2.85;2.50;;;;;;;;;;5024694;28;20178;-85
2022/06/19 00:14:46;;;;;;;3.67;2.92;;;;;;;;;;5023653;28;20211;-86
2022/06/19 00:17:13;;;;;;;4.30;2.88;;;;;;;;;;5024399;28;20630;-86
2022/06/19 00:19:40;;;;;;;4.15;2.75;;;;;;;;;;5023923;28;20214;-87
2022/06/19 00:22:06;;;;;;;2.97;2.50;;;;;;;;;;5023968;28;20325;-87
2022/06/19 00:24:32;;;;;;;4.55;3.25;;;;;;;;;;5023361;28;20182;-85
2022/06/19 00:26:58;;;;;;;5.93;3.20;;;;;;;;;;5023716;28;21004;-86
2022/06/19 00:29:26;;;;;;;3.45;2.92;;;;;;;;;;5023849;28;20179;-85
2022/06/19 00:31:54;;;;;;;5.35;3.42;;;;;;;;;;5025101;28;20945;-86
2022/06/19 00:34:20;;;;;;;4.03;2.95;;;;;;;;;;5023784;28;20190;-85
2022/06/19 00:36:49;;;;;;;3.50;3.05;;;;;;;;;;5024958;28;20205;-86
2022/06/19 00:39:15;;;;;;;4.68;3.17;;;;;;;;;;5023997;28;20683;-85
2022/06/19 00:41:41;;;;;;;4.35;3.13;;;;;;;;;;5024265;28;20211;-87
2022/06/19 00:44:09;;;;;;;3.72;2.92;;;;;;;;;;5022957;28;20967;-87
2022/06/19 00:46:55;;;;;;;4.50;2.95;;;;;;;;;;5023030;28;20764;-85
2022/06/19 00:49:40;;;;;;;5.97;2.85;;;;;;;;;;5022626;28;20277;-87
2022/06/19 00:52:11;;;;;;;4.15;2.97;;;;;;;;;;5023723;28;20194;-88
2022/06/19 00:54:57;;;;;;;5.05;2.95;;;;;;;;;;5022598;28;20185;-85
2022/06/19 00:57:25;;;;;;;3.17;2.88;;;;;;;;;;5038985;28;20245;-86
2022/06/19 00:59:53;;;;;;;3.72;2.72;;;;;;;;;;5022587;28;20428;-86
2022/06/19 01:02:19;;;;;;;4.13;2.60;;;;;;;;;;5024528;28;20860;-87
2022/06/19 01:04:53;;;;;;;4.38;2.95;;;;;;;;;;5023092;28;20205;-87
2022/06/19 01:07:21;;;;;;;3.78;2.65;;;;;;;;;;5015001;28;20257;-87
2022/06/19 01:09:48;;;;;;;4.93;3.10;;;;;;;;;;5021994;28;20206;-87
2022/06/19 01:12:14;;;;;;;3.25;2.85;;;;;;;;;;5022657;28;20642;-85
2022/06/19 01:14:41;;;;;;;4.35;2.78;;;;;;;;;;5023026;28;20189;-87
2022/06/19 01:17:08;;;;;;;5.13;3.03;;;;;;;;;;5024158;28;20178;-87
2022/06/19 01:19:38;;;;;;;4.93;2.88;;;;;;;;;;5021891;28;20174;-87
2022/06/19 01:22:15;;;;;;;5.03;2.85;;;;;;;;;;5022405;28;20175;-85
2022/06/19 01:25:00;;;;;;;6.25;2.90;;;20.30;1.00;;;;;;5022716;28;20732;-87
2022/06/19 01:30:15;;;;;;;4.25;2.92;;;18.80;49.50;;;;;;5022938;28;20764;-86
2022/06/19 01:32:44;;;;;;;3.28;2.72;;;18.80;49.30;;;;;;5022718;28;20577;-86
2022/06/19 01:35:11;;;;;;;3.55;2.75;;;18.80;52.20;;;;;;5022827;28;20178;-86
2022/06/19 01:37:40;;;;;;;4.80;2.65;;;18.70;55.90;;;;;;5038392;28;20199;-88
2022/06/19 01:40:09;;;;;;;3.03;2.70;;;18.70;56.00;;;;;;5022133;28;20272;-86
2022/06/19 01:42:35;;;;;;;6.88;2.72;;;18.70;59.30;;;;;;5022033;28;20187;-86
2022/06/19 01:45:01;;;;;;;2.92;2.55;;;18.60;66.40;;;;;;5021837;28;20273;-84
2022/06/19 01:47:27;;;;;;;5.13;2.88;;;18.60;78.10;;;;;;5023268;28;20187;-87
2022/06/19 01:49:56;;;;;;;2.70;2.50;;;18.60;80.60;;;;;;5024441;28;20206;-86
2022/06/19 01:52:25;;;;;;;4.47;2.97;;;18.60;90.20;;;;;;5025987;28;20175;-86
2022/06/19 01:54:59;;;;;;;4.85;3.10;;;18.50;91.90;;;;;;5027500;28;20186;-87
2022/06/19 01:57:27;;;;;;;4.60;2.65;;;18.50;93.00;;;;;;5019016;28;20239;-87
2022/06/19 01:59:53;;;;;;;3.70;2.65;;;18.50;96.80;;;;;;5025888;28;20471;-87
2022/06/19 02:02:20;;;;;;;4.80;3.03;;;18.50;97.70;;;;;;5026298;28;20175;-86
2022/06/19 02:04:45;;;;;;;3.30;3.00;;;18.50;95.80;;;;;;5043084;28;20198;-86
2022/06/19 02:07:16;;;;;;;6.97;3.28;;;18.40;98.30;;;;;;5025692;28;20183;-86
2022/06/19 02:09:42;;;;;;;3.28;3.00;;;18.30;99.90;;;;;;5026948;28;20183;-84
2022/06/19 02:12:10;;;;;;;5.95;2.90;;;18.30;99.90;;;;;;5025956;28;20179;-86
2022/06/19 02:14:35;;;;;;;4.43;3.28;;;18.30;99.90;;;;;;5025220;28;20233;-86
2022/06/19 02:17:18;;;;;;;3.40;3.10;;;18.20;99.90;;;;;;5025642;28;20247;-87
2022/06/19 02:19:43;;;;;;;3.63;3.10;;;18.10;99.90;;;;;;5041424;28;20197;-86
2022/06/19 02:22:13;;;;;;;5.65;3.15;;;18.10;99.90;;;;;;5026303;28;20179;-87
2022/06/19 02:24:39;;;;;;;3.78;3.35;;;18.10;99.90;;;;;;5027946;28;20640;-86
2022/06/19 02:27:05;;;;;;;4.88;3.38;;;18.10;99.90;;;;;;5026091;28;20201;-86
2022/06/19 02:29:33;;;;;;;4.55;3.13;;;18.20;99.90;;;;;;5024969;28;20179;-86
2022/06/19 02:31:59;;;;;;;4.57;2.78;;;18.30;99.90;;;;;;5025875;28;20211;-87
2022/06/19 02:34:38;;;;;;;5.07;2.90;;;18.30;99.90;;;;;;5028514;28;20228;-87
2022/06/19 02:37:17;;;;;;;6.97;2.78;;;18.30;99.90;;;;;;5042662;28;20183;-86
2022/06/19 02:39:57;;;;;;;2.95;2.53;;;18.30;99.90;;;;;;5028956;28;20181;-86
2022/06/19 02:42:32;;;;;;;3.42;2.70;;;18.40;99.90;;;;;;5028133;28;20171;-86
2022/06/19 02:45:03;;;;;;;4.03;2.70;;;18.40;99.50;;;;;;5026730;28;20174;-86
2022/06/19 02:47:32;;;;;;;3.75;2.67;;;18.40;97.00;;;;;;5026488;28;20678;-86
2022/06/19 02:49:57;;;;;;;5.25;3.00;;;18.40;98.40;;;;;;5027382;28;20293;-86
2022/06/19 02:52:23;;;;;;;5.70;2.65;;;18.50;94.70;;;;;;5026618;28;20283;-86
2022/06/19 02:54:49;;;;;;;3.58;2.58;;;18.50;83.50;;;;;;5027058;28;20659;-85
2022/06/19 02:57:16;;;;;;;4.60;2.58;;;18.50;90.30;;;;;;5027758;28;20225;-86
2022/06/19 02:59:42;;;;;;;4.00;2.45;;;18.50;95.50;;;;;;5026988;28;20665;-86
2022/06/19 03:02:11;;;;;;;3.58;2.67;;;18.50;99.90;;;;;;5026431;28;20191;-86
2022/06/19 03:04:41;;;;;;;4.63;2.95;;;18.50;99.90;;;;;;5027265;28;20175;-86
2022/06/19 03:07:06;;;;;;;5.57;3.20;;;18.40;97.40;;;;;;5018775;28;20187;-88
2022/06/19 03:09:32;;;;;;;5.55;2.90;;;18.40;99.90;;;;;;5042191;28;20179;-88
2022/06/19 03:11:58;;;;;;;3.83;2.67;;;18.30;99.70;;;;;;5026516;28;20202;-88
2022/06/19 03:14:24;;;;;;;4.20;2.60;;;18.30;99.90;;;;;;5026408;28;20175;-89
2022/06/19 03:16:50;;;;;;;4.00;2.95;;;18.30;99.90;;;;;;5026313;28;20179;-89
2022/06/19 03:19:16;;;;;;;3.92;2.65;;;18.30;99.90;;;;;;5025985;28;20233;-90
2022/06/19 03:21:42;;;;;;;4.82;3.17;;;18.30;98.80;;;;;;5024942;28;20207;-88
2022/06/19 03:24:08;;;;;;;3.78;3.22;;;18.30;99.40;;;;;;5027355;28;20202;-87
2022/06/19 03:26:33;;;;;;;5.32;3.72;;;18.30;99.90;;;;;;5026224;28;20203;-88
2022/06/19 03:28:59;;;;;;;3.22;2.88;;;18.30;99.90;;;;;;5026972;28;20190;-87
2022/06/19 03:31:26;;;;;;;5.63;3.60;;;18.30;99.90;;;;;;5026528;28;20717;-88
2022/06/19 03:33:52;;;;;;;3.38;3.08;;;18.30;99.90;;;;;;5027877;28;20190;-87
2022/06/19 03:36:19;;;;;;;3.88;2.72;;;18.30;99.90;;;;;;5042550;28;20175;-88
2022/06/19 03:38:45;;;;;;;3.38;3.08;;;18.40;99.90;;;;;;5026091;28;20183;-88
2022/06/19 03:41:11;;;;;;;4.20;3.30;;;18.40;99.90;;;;;;5027194;28;20594;-89
2022/06/19 03:43:37;;;;;;;3.15;2.85;;;18.40;99.90;;;;;;5026374;28;20329;-86
2022/06/19 03:46:12;;;;;;;3.70;2.97;;;18.50;96.80;;;;;;5027140;28;20282;-87
2022/06/19 03:48:45;;;;;;;5.55;3.05;;;18.60;92.90;;;;;;5026463;28;20357;-86
2022/06/19 03:51:11;;;;;;;4.47;3.15;;;18.60;81.30;;;;;;5027073;28;20712;-87
2022/06/19 03:53:38;;;;;;;3.00;2.65;;;18.70;70.90;;;;;;5026683;28;20191;-87
2022/06/19 03:56:06;;;;;;;4.72;2.83;;;18.70;59.30;;;;;;5027587;28;20213;-86
2022/06/19 03:58:47;;;;;;;3.50;2.42;;;18.80;53.40;;;;;;5026701;28;20191;-86
2022/06/19 04:01:24;;;;;;;3.05;2.67;;;18.90;48.00;;;;;;5028104;28;20207;-86
2022/06/19 04:03:51;;;;;;;3.08;2.72;;;19.00;19.30;;;;;;5026255;28;20190;-87
2022/06/19 04:06:20;;;;;;;3.78;2.88;;;19.10;2.80;;;;;;5027234;28;20183;-86
2022/06/19 04:08:46;;;;;;;4.43;2.88;;;19.20;9.70;;;;;;5027646;28;20278;-87
2022/06/19 04:11:13;;;;;;;3.38;3.08;;;19.20;4.90;;;;;;5027876;28;20226;-87
2022/06/19 04:13:39;;;;;;;3.97;2.90;;;19.30;1.00;;;;;;5042076;28;20652;-86
2022/06/19 04:16:06;;;;;;;2.95;2.70;;;19.40;1.00;;;;;;5027174;28;20202;-87
2022/06/19 04:18:32;;;;;;;4.13;2.75;;;19.50;1.00;;;;;;5027153;28;20568;-86
2022/06/19 04:20:59;;;;;;;3.75;2.97;;;19.60;1.00;;;;;;5026713;28;20213;-87
2022/06/19 04:23:26;;;;;;;2.63;2.42;;;19.70;1.00;;;;;;5026458;28;20217;-86
2022/06/19 04:25:52;;;;;;;3.33;2.90;;;19.80;1.00;;;;;;5043105;28;20226;-86
2022/06/19 04:28:22;;;;;;;3.40;2.50;;;20.00;1.00;;;;;;5026842;28;20191;-86
2022/06/19 04:30:49;;;;;;;3.80;2.97;;;20.10;1.00;;;;;;5026255;28;20225;-86
2022/06/19 04:33:16;;;;;;;4.22;3.05;;;20.30;1.00;;;;;;5026648;28;20183;-87
2022/06/19 04:35:42;;;;;;;4.38;2.70;;;20.40;1.00;;;;;;5043206;28;20179;-86
2022/06/19 04:38:08;;;;;;;3.25;2.35;;;20.60;1.00;;;;;;5027035;28;21039;-86
2022/06/19 04:40:35;;;;;;;3.92;2.65;;;20.70;1.00;;;;;;5026668;28;20222;-86
2022/06/19 04:43:01;;;;;;;3.28;2.90;;;20.90;1.00;;;;;;5028145;28;20197;-86
2022/06/19 04:45:27;;;;;;;3.22;2.75;;;21.00;1.00;;;;;;5042928;28;20186;-87
2022/06/19 04:47:53;;;;;;;4.72;3.17;;;21.10;1.00;;;;;;5025370;28;20179;-86
2022/06/19 04:50:18;;;;;;;3.97;2.65;;;21.30;1.00;;;;;;5027055;28;20222;-87
2022/06/19 04:52:44;;;;;;;3.13;2.90;;;21.50;1.00;;;;;;5025488;28;20187;-86
2022/06/19 04:55:11;;;;;;;3.22;2.78;;;21.70;1.00;;;;;;5025166;28;20183;-87
2022/06/19 04:57:37;;;;;;;3.05;2.75;;;21.90;1.00;;;;;;5027267;28;20183;-87
2022/06/19 05:00:05;;;;;;;2.78;2.47;;;22.20;1.00;;;;;;5024855;28;20210;-86
2022/06/19 05:02:31;;;;;;;2.80;2.60;;;22.70;99.90;;;;;;5024634;28;20183;-86
2022/06/19 05:04:56;;;;;;;3.95;2.50;;;23.10;1.00;;;;;;5025221;28;20194;-87
2022/06/19 05:07:22;;;;;;;3.42;2.30;;;23.60;1.00;;;;;;5025188;28;20213;-87
2022/06/19 05:09:47;;;;;;;3.22;2.42;;;24.10;1.00;;;;;;5024543;28;20186;-87
2022/06/19 05:12:13;;;;;;;2.92;2.17;;;24.50;1.00;;;;;;5025247;28;20296;-86
2022/06/19 05:14:39;;;;;;;3.35;2.40;;;25.00;99.90;;;;;;5026260;28;20213;-86
2022/06/19 05:17:05;;;;;;;3.30;2.58;;;25.20;1.00;;;;;;5024049;28;20177;-87
2022/06/19 05:19:30;;;;;;;4.90;2.63;;;25.30;99.90;;;;;;5023419;28;20183;-86
2022/06/19 05:22:00;;;;;;;3.40;2.50;;;25.80;1.00;;;;;;5023287;28;20198;-86
2022/06/19 05:24:26;;;;;;;3.10;2.40;;;26.40;1.00;;;;;;5015679;28;20182;-86
2022/06/19 05:26:52;;;;;;;3.35;2.80;;;27.00;99.90;;;;;;5015662;28;20225;-87
2022/06/19 05:29:18;;;;;;;3.63;2.60;;;27.40;88.40;;;;;;5024826;28;20193;-86
2022/06/19 05:31:43;;;;;;;3.63;2.45;;;27.80;1.00;;;;;;5023948;28;20229;-87
2022/06/19 05:34:09;;;;;;;5.18;2.80;;;28.10;1.00;;;;;;5023275;28;20183;-87
2022/06/19 05:36:34;;;;;;;4.13;2.90;;;28.70;1.00;;;;;;5022930;28;20183;-86
2022/06/19 05:39:00;;;;;;;4.57;3.17;;;28.80;1.00;;;;;;5023517;28;20213;-87
2022/06/19 05:41:28;;;;;;;3.67;3.20;;;29.20;99.90;;;;;;5024666;28;20285;-87
2022/06/19 05:43:54;;;;;;;4.68;3.60;;;29.30;99.90;;;;;;5015968;28;20210;-85
2022/06/19 05:46:20;;;;;;;6.78;3.80;;;29.70;99.90;;;;;;5023352;28;20210;-88
2022/06/19 05:48:46;;;;;;;5.25;3.08;;;29.80;99.90;;;;;;5022223;28;20249;-86
2022/06/19 05:51:18;;;;;;;4.03;3.10;;;30.00;99.90;;;;;;5023924;28;20284;-85
2022/06/19 05:53:50;;;;;;;4.18;3.00;;;30.60;99.90;;;;;;5039574;28;20175;-87
2022/06/19 05:56:16;;;;;;;3.88;3.13;;;31.10;99.90;;;;;;5023838;28;20194;-87
2022/06/19 05:58:42;;;;;;;5.15;3.53;;;31.20;99.90;;;;;;5020022;28;20229;-86
2022/06/19 06:01:09;;;;;;;5.05;3.10;;;29.70;99.90;;;;;;5019773;28;20218;-86
2022/06/19 06:03:35;;;;;;;3.95;3.13;;;28.80;99.90;;;;;;5019089;28;20672;-86
2022/06/19 06:06:03;;;;;;;2.72;2.50;;;29.20;99.90;;;;;;5019503;28;20183;-86
2022/06/19 06:08:29;;;;;;;3.35;2.40;;;29.80;99.90;;;;;;5035103;28;20182;-86
2022/06/19 06:10:55;;;;;;;2.67;2.40;;;30.70;99.90;;;;;;5018676;28;20297;-86
2022/06/19 06:13:21;;;;;;;4.35;2.85;;;30.90;99.90;;;;;;5020772;28;20270;-87
2022/06/19 06:15:49;;;;;;;2.65;2.35;;;30.30;99.90;;;;;;5019301;28;20206;-87
2022/06/19 06:18:15;;;;;;;5.28;2.50;;;30.10;99.90;;;;;;5018766;28;20211;-87
2022/06/19 06:20:41;;;;;;;5.43;2.20;;;30.40;99.90;;;;;;5018303;28;20367;-86
2022/06/19 06:23:07;;;;;;;3.88;1.95;;;30.30;99.90;;;;;;5019690;28;20801;-86
2022/06/19 06:25:34;;;;;;;2.45;2.25;;;30.60;99.90;;;;;;5018700;28;20201;-86
2022/06/19 06:28:00;;;;;;;3.88;2.70;;;30.40;87.80;;;;;;5019171;28;20183;-86
2022/06/19 06:30:26;;;;;;;3.53;2.20;;;28.90;99.90;;;;;;5016584;28;20710;-86
2022/06/19 06:32:51;;;;;;;1.98;1.88;;;28.80;99.90;;;;;;5006283;28;20214;-85
2022/06/19 06:35:17;;;;;;;2.30;2.10;;;29.60;99.90;;;;;;5019122;28;20205;-86
2022/06/19 06:37:43;;;;;;;4.40;2.50;;;30.00;99.90;;;;;;5022766;28;20555;-86
2022/06/19 06:40:09;;;;;;;2.30;2.03;;;29.30;99.90;;;;;;5022121;28;20686;-86
2022/06/19 06:42:35;;;;;;;3.42;2.50;;;29.00;99.90;;;;;;5022551;28;20317;-86
2022/06/19 06:45:01;;;;;;;3.95;2.17;;;28.80;99.90;;;;;;5022891;28;20278;-85
2022/06/19 06:47:27;;;;;;;2.72;2.15;;;28.60;99.90;;;;;;5021890;28;20194;-86
2022/06/19 06:49:52;;;;;;;2.50;2.30;;;28.40;99.90;;;;;;5019839;28;21166;-87
2022/06/19 06:52:18;;;;;;;2.50;2.15;;;29.60;99.90;;;;;;5021668;28;20664;-84
2022/06/19 06:54:44;;;;;;;3.15;2.25;;;30.10;99.90;;;;;;5010144;28;20194;-86
2022/06/19 06:57:09;;;;;;;3.13;2.30;;;29.90;99.90;;;;;;5021896;28;20277;-86
2022/06/19 06:59:36;;;;;;;3.90;2.30;;;30.50;91.80;;;;;;5023088;28;20190;-86
2022/06/19 07:02:03;;;;;;;2.88;2.03;;;30.70;56.10;;;;;;5021165;28;20207;-85
2022/06/19 07:04:29;;;;;;;2.35;2.08;;;31.30;35.70;;;;;;5024544;28;20190;-85
2022/06/19 07:06:57;;;;;;;4.63;2.42;;;30.90;29.30;;;;;;5024647;28;20187;-87
2022/06/19 07:09:23;;;;;;;2.92;2.53;;;31.00;18.80;;;;;;5023060;28;20182;-86
2022/06/19 07:11:49;;;;;;;2.38;2.17;;;31.60;1.30;;;;;;5022722;28;20240;-86
2022/06/19 07:14:16;;;;;;;3.05;2.30;;;32.10;1.00;;;;;;5022242;28;20209;-86
2022/06/19 07:16:42;;;;;;;2.55;2.22;;;31.40;1.00;;;;;;5022079;28;20193;-86
2022/06/19 07:19:08;;;;;;;4.35;2.50;;;30.60;1.00;;;;;;5021702;28;20191;-86
2022/06/19 07:21:34;;;;;;;3.88;2.53;;;29.90;3.70;;;;;;5022330;28;20559;-85
2022/06/19 07:24:00;;;;;;;4.65;2.20;;;30.40;6.10;;;;;;5021010;28;20194;-85
2022/06/19 07:26:27;;;;;;;2.40;2.20;;;31.10;1.00;;;;;;5021538;28;20191;-86
2022/06/19 07:28:53;;;;;;;2.60;2.40;;;30.90;1.00;;;;;;5018464;28;20183;-86
2022/06/19 07:31:18;;;;;;;2.30;2.10;;;30.30;1.00;;;;;;5024732;28;20206;-87
2022/06/19 07:33:44;;;;;;;2.40;2.20;;;28.70;23.60;;;;;;5025196;28;20286;-86
2022/06/19 07:36:17;;;;;;;2.50;2.28;;;28.30;91.70;;;;;;5024484;28;20186;-86
2022/06/19 07:38:43;;;;;;;3.22;2.63;;;27.90;99.90;;;;;;5013650;28;20209;-86
2022/06/19 07:41:09;;;;;;;3.47;3.15;;;27.50;99.90;;;;;;5039465;28;20735;-85
2022/06/19 07:43:35;;;;;;;3.10;2.80;;;26.70;99.90;;;;;;5024407;28;20201;-86
2022/06/19 07:46:01;;;;;;;3.88;3.03;;;26.00;1.00;;;;;;5040717;28;20187;-86
2022/06/19 07:51:12;;;;;;;3.20;2.90;;;;;;;;;;5026313;28;20789;-85
2022/06/19 07:53:38;;;;;;;4.13;2.75;;;;;;;;;;5022740;28;20186;-86
2022/06/19 07:56:04;;;;;;;3.38;2.70;;;;;;;;;;5021821;28;20183;-85
2022/06/19 07:58:30;;;;;;;3.65;2.47;;;25.70;1.00;;;;;;5022303;28;20187;-85
2022/06/19 08:00:56;;;;;;;3.20;2.78;;;25.50;99.90;;;;;;5039291;28;20202;-85
2022/06/19 08:03:21;;;;;;;3.88;2.88;;;25.40;99.90;;;;;;5023741;28;20187;-86
2022/06/19 08:05:47;;;;;;;4.82;3.15;;;25.40;99.90;;;;;;5025222;28;20187;-85
2022/06/19 08:08:33;;;;;;;3.97;2.78;;;25.40;1.00;;;;;;5024257;28;20194;-86
2022/06/19 08:10:59;;;;;;;3.15;2.85;;;25.30;1.00;;;;;;5021328;28;20309;-86
2022/06/19 08:13:28;;;;;;;4.22;2.65;;;25.40;1.00;;;;;;5023896;28;20237;-85
2022/06/19 08:15:59;;;;;;;2.50;2.30;;;25.40;99.90;;;;;;5037532;28;20934;-85
2022/06/19 08:18:26;;;;;;;3.15;2.58;;;25.50;1.00;;;;;;5023994;28;20270;-85
2022/06/19 08:20:52;;;;;;;4.72;3.10;;;25.30;99.90;;;;;;5025067;28;20213;-85
2022/06/19 08:23:19;;;;;;;19.90;18.00;;;25.40;99.90;;;;;;5024093;28;20182;-85
2022/06/19 08:25:46;;;;;;;2.97;2.70;;;25.50;1.00;;;;;;5023458;28;20205;-85
2022/06/19 08:28:12;;;;;;;6.35;2.58;;;25.70;99.90;;;;;;5024131;28;20640;-85
2022/06/19 08:30:41;;;;;;;3.88;2.70;;;25.80;99.90;;;;;;5021458;28;20215;-85
2022/06/19 08:33:07;;;;;;;3.38;2.88;;;25.90;99.90;;;;;;5021114;28;20261;-86
2022/06/19 08:35:36;;;;;;;3.83;2.70;;;;;;;;;;5023427;28;20171;-86
2022/06/19 08:38:07;;;;;;;3.92;2.83;;;;;;;;;;5021489;28;20276;-86
2022/06/19 08:40:48;;;;;;;3.30;2.50;;;26.00;1.00;;;;;;5021138;28;20256;-86
2022/06/19 08:43:24;;;;;;;4.47;2.78;;;25.90;99.90;;;;;;5021028;28;20179;-86
2022/06/19 08:46:17;;;;;;;6.22;5.53;;;26.00;99.90;;;;;;5021141;28;20187;-85
2022/06/19 08:48:43;;;;;;;4.45;3.25;;;26.10;68.10;;;;;;5022457;28;20194;-85
2022/06/19 08:51:37;;;;;;;3.20;2.28;;;26.20;1.00;;;;;;5024071;28;20731;-85
2022/06/19 08:54:08;;;;;;;3.75;2.20;;;;;;;;;;5013136;28;20630;-85
2022/06/19 08:56:56;;;;;;;2.55;2.30;;;;;;;;;;5022134;28;20189;-85
2022/06/19 08:59:22;;;;;;;4.30;2.22;;;;;;;;;;5016166;28;20178;-85
2022/06/19 09:02:01;;;;;;;4.20;2.35;;;;;;;;;;5020896;28;20202;-86
2022/06/19 09:07:47;;;;;;;4.50;2.10;;;;;;;;;;5022904;28;20583;-86
2022/06/19 09:10:28;;;;;;;4.10;2.47;;;;;;;;;;5020576;28;20249;-86
2022/06/19 09:13:01;;;;;;;2.22;2.03;;;;;;;;;;5021108;28;20183;-84
2022/06/19 09:15:35;;;;;;;2.58;2.00;;;;;;;;;;5022956;28;20174;-85
2022/06/19 09:18:04;;;;;;;9.52;2.80;;;;;;;;;;5013480;28;20268;-85
2022/06/19 09:20:36;;;;;;;3.33;2.45;;;;;;;;;;5023081;28;20306;-82
2022/06/19 09:23:20;;;;;;;3.45;2.33;;;;;;;;;;5022715;28;20261;-85
2022/06/19 09:25:55;;;;;;;5.25;2.30;;;;;;;;;;5022776;28;20574;-85
2022/06/19 09:28:27;;;;;;;3.60;2.05;;;;;;;;;;5024340;28;20276;-85
2022/06/19 09:30:59;;;;;;;5.28;2.30;;;;;;;;;;5022833;28;20301;-85
2022/06/19 09:33:34;;;;;;;3.47;2.00;;;26.10;14.40;;;;;;5016040;28;20187;-86
2022/06/19 09:36:07;;;;;;;5.57;2.40;;;26.50;1.00;;;;;;5016012;28;20873;-85
2022/06/19 09:38:44;;;;;;;3.38;2.15;;;26.70;99.90;;;;;;5022367;28;20523;-85
2022/06/19 09:41:17;;;;;;;5.97;2.22;;;26.60;99.90;;;;;;5016014;28;20210;-85
2022/06/19 09:44:06;;;;;;;4.57;2.58;;;26.60;99.90;;;;;;5024597;28;20211;-85
2022/06/19 09:46:44;;;;;;;2.75;2.20;;;26.70;1.00;;;;;;5023732;28;20195;-85
2022/06/19 09:49:14;;;;;;;3.63;2.40;;;26.90;99.90;;;;;;5024764;28;20707;-85
2022/06/19 09:52:09;;;;;;;3.75;2.28;;;26.90;99.90;;;;;;5023148;28;20217;-86
2022/06/19 09:54:51;;;;;;;4.93;2.35;;;26.90;99.90;;;;;;5026998;28;20221;-86
2022/06/19 09:57:30;;;;;;;4.85;2.45;;;26.90;99.90;;;;;;5022971;28;20185;-86
2022/06/19 10:00:01;;;;;;;6.28;2.53;;;26.80;99.90;;;;;;5038159;28;20182;-86
2022/06/19 10:02:43;;;;;;;6.43;2.60;;;26.70;99.90;;;;;;5022054;28;20228;-86
2022/06/19 10:05:12;;;;;;;4.13;2.05;;;26.50;99.90;;;;;;5022420;28;20547;-85
2022/06/19 10:07:44;;;;;;;7.07;2.67;;;26.40;99.90;;;;;;5021510;28;20232;-84
2022/06/19 10:10:30;;;;;;;5.32;2.53;;;26.50;99.90;;;;;;5021022;28;20710;-85
2022/06/19 10:12:58;;;;;;;5.78;2.75;;;26.40;99.90;;;;;;5042734;28;20185;-85
2022/06/19 10:15:31;;;;;;;5.88;2.63;;;26.40;99.90;;;;;;5027364;28;20558;-84
2022/06/19 10:18:17;;;;;;;4.47;2.75;;;26.20;99.90;;;;;;5024499;28;20183;-85
2022/06/19 10:20:53;;;;;;;6.53;2.38;;;26.10;99.90;;;;;;5022585;28;20620;-85
2022/06/19 10:23:27;;;;;;;6.72;2.67;;;26.10;99.90;;;;;;5023109;28;20368;-85
2022/06/19 10:26:01;;;;;;;6.25;2.80;;;26.20;99.90;;;;;;5022541;28;20206;-85
2022/06/19 10:28:41;;;;;;;8.32;3.30;;;26.30;99.90;;;;;;5023139;28;20182;-86
2022/06/19 10:31:23;;;;;;;4.72;2.20;;;26.30;99.90;;;;;;5024078;28;20631;-85
2022/06/19 10:34:03;;;;;;;6.25;2.65;;;26.40;99.90;;;;;;5023148;28;20558;-87
2022/06/19 10:36:40;;;;;;;5.38;2.78;;;26.40;99.90;;;;;;5022762;28;20662;-87
2022/06/19 10:39:09;;;;;;;4.13;2.40;;;26.30;99.90;;;;;;5023792;28;20178;-86
2022/06/19 10:42:00;;;;;;;6.57;2.80;;;26.50;99.90;;;;;;5023262;28;20673;-86
2022/06/19 10:44:48;;;;;;;4.60;2.45;;;26.40;99.90;;;;;;5022585;28;20183;-87
2022/06/19 10:47:49;;;;;;;6.00;3.17;;;26.30;99.90;;;;;;5013377;28;20186;-86
2022/06/19 10:50:33;;;;;;;5.43;2.90;;;26.50;99.90;;;;;;4902909;28;20260;-84
2022/06/19 10:53:20;;;;;;;4.15;2.90;;;26.60;99.90;;;;;;5021136;28;20229;-84
2022/06/19 10:56:17;;;;;;;4.93;2.45;;;26.80;99.90;;;;;;5018124;28;20184;-86
2022/06/19 10:58:45;;;;;;;7.05;2.90;;;26.70;99.90;;;;;;5039769;28;20186;-85
2022/06/19 11:04:06;;;;;;;6.93;3.00;;;26.90;99.90;;;;;;5040605;28;20297;-85
2022/06/19 11:04:09;;;;;;;5.75;2.60;;;26.80;99.90;;;;;;5024222;28;20187;-85
2022/06/19 11:06:38;;;;;;;5.05;2.75;;;26.90;99.90;;;;;;5023630;28;20191;-85
2022/06/19 11:09:15;;;;;;;7.10;3.47;;;27.10;99.90;;;;;;5040494;28;20213;-86
2022/06/19 11:11:44;;;;;;;6.43;2.70;;;27.10;99.90;;;;;;5040561;28;20702;-86
2022/06/19 11:14:26;;;;;;;5.43;2.78;;;27.00;99.90;;;;;;5025741;28;20190;-86
2022/06/19 11:16:53;;;;;;;7.35;3.00;;;26.80;99.90;;;;;;5024361;28;20243;-88
2022/06/19 11:19:40;;;;;;;6.68;2.55;;;26.80;99.90;;;;;;5024015;28;20874;-86
2022/06/19 11:22:27;;;;;;;4.22;2.55;;;26.80;99.90;;;;;;5024398;28;20187;-86
2022/06/19 11:24:55;;;;;;;7.13;2.53;;;26.70;99.90;;;;;;5032528;28;20599;-85
2022/06/19 11:27:24;;;;;;;7.85;2.67;;;26.70;99.90;;;;;;5023970;28;20221;-86
2022/06/19 11:29:52;;;;;;;7.63;2.67;;;26.70;99.90;;;;;;5040244;28;20179;-87
2022/06/19 11:32:21;;;;;;;7.05;2.75;;;26.70;99.90;;;;;;5040599;28;20285;-87
2022/06/19 11:35:03;;;;;;;7.57;2.90;;;26.50;99.90;;;;;;5025058;28;20179;-86
2022/06/19 11:37:46;;;;;;;4.65;2.58;;;26.40;99.90;;;;;;5042323;28;20183;-86
2022/06/19 11:40:16;;;;;;;7.55;3.00;;;26.50;99.90;;;;;;5024423;28;20700;-86
2022/06/19 11:42:50;;;;;;;8.43;2.70;;;26.70;99.90;;;;;;5024467;28;20187;-84
2022/06/19 11:45:16;;;;;;;7.20;3.05;;;26.70;99.90;;;;;;5024941;28;20244;-87
2022/06/19 11:47:47;;;;;;;5.15;2.60;;;26.70;99.90;;;;;;5015044;28;20269;-85
2022/06/19 11:50:42;;;;;;;7.15;2.63;;;26.70;99.90;;;;;;5039450;28;20307;-87
2022/06/19 11:53:10;;;;;;;6.70;2.80;;;26.60;99.90;;;;;;5015890;28;20191;-87
2022/06/19 11:56:14;;;;;;;5.03;2.75;;;26.70;99.90;;;;;;5015368;28;20233;-86
2022/06/19 11:58:43;;;;;;;9.65;3.05;;;26.60;99.90;;;;;;5024885;28;20202;-87
2022/06/19 12:01:13;;;;;;;6.18;2.67;;;26.80;99.90;;;;;;5026598;28;20210;-85
2022/06/19 12:04:00;;;;;;;7.25;3.17;;;26.90;99.90;;;;;;5024625;28;20215;-86
2022/06/19 12:06:54;;;;;;;5.80;2.78;;;26.90;99.90;;;;;;5041471;28;20179;-85
2022/06/19 12:09:33;;;;;;;7.45;2.58;;;27.20;99.90;;;;;;5015358;28;20197;-85
2022/06/19 12:12:08;;;;;;;8.60;3.53;;;;;;;;;;5024853;28;20680;-86
2022/06/19 12:14:53;;;;;;;5.05;2.20;;;;;;;;;;5017080;28;20225;-86
2022/06/19 12:17:31;;;;;;;8.02;3.20;;;;;;;;;;5023383;28;20190;-86
2022/06/19 12:20:05;;;;;;;4.10;2.42;;;27.40;99.90;;;;;;5016030;28;20220;-86
2022/06/19 12:22:53;;;;;;;7.97;2.83;;;27.30;99.90;;;;;;5014313;28;20209;-87
2022/06/19 12:25:28;;;;;;;4.93;2.53;;;27.50;89.30;;;;;;5036357;28;20202;-86
2022/06/19 12:28:02;;;;;;;6.60;2.88;;;27.40;88.40;;;;;;5010866;28;20174;-86
2022/06/19 12:30:34;;;;;;;4.82;2.40;;;27.50;73.10;;;;;;5010130;28;20704;-86
2022/06/19 12:33:04;;;;;;;5.72;3.22;;;27.70;56.50;;;;;;5033549;28;20187;-86
2022/06/19 12:35:34;;;;;;;4.55;2.80;;;27.60;18.60;;;;;;5035715;28;20890;-87
2022/06/19 12:38:02;;;;;;;6.82;3.40;;;27.60;26.60;;;;;;5022458;28;20308;-86
2022/06/19 12:40:49;;;;;;;4.95;2.97;;;27.80;20.50;;;;;;5038391;28;20202;-86
2022/06/19 12:43:26;;;;;;;5.55;2.53;;;27.80;23.60;;;;;;5020379;28;20194;-87
2022/06/19 12:45:56;;;;;;;6.82;2.75;;;27.80;20.50;;;;;;5022530;28;20240;-88
2022/06/19 12:48:28;;;;;;;4.93;2.65;;;28.10;17.50;;;;;;5022308;28;20187;-89
2022/06/19 12:51:12;;;;;;;8.15;3.10;;;28.40;7.20;;;;;;5040964;28;20617;-88
2022/06/19 12:54:16;;;;;;;5.95;2.72;;;28.50;8.90;;;;;;5022304;28;20197;-89
2022/06/19 12:57:18;;;;;;;5.03;2.38;;;28.40;1.00;;;;;;5022391;28;20183;-87
2022/06/19 13:00:00;;;;;;;5.55;2.75;;;28.20;1.00;;;;;;5037283;28;20581;-89
2022/06/19 13:02:51;;;;;;;4.22;2.65;;;28.30;1.00;;;;;;5021621;28;20186;-86
2022/06/19 13:05:38;;;;;;;4.93;2.55;;;28.30;1.00;;;;;;5021436;28;20687;-89
2022/06/19 13:08:13;;;;;;;5.10;2.90;;;27.80;1.00;;;;;;5020353;28;20179;-87
2022/06/19 13:11:20;;;;;;;5.28;2.78;;;27.60;1.00;;;;;;5020393;28;20234;-89
2022/06/19 13:14:22;;;;;;;6.05;2.53;;;27.60;1.00;;;;;;5021619;28;20190;-88
2022/06/19 13:17:23;;;;;;;5.88;3.08;;;27.40;1.00;;;;;;5022224;28;20228;-87
2022/06/19 13:20:00;;;;;;;6.30;2.70;;;27.40;1.00;;;;;;5026796;28;20198;-87
2022/06/19 13:22:54;;;;;;;8.60;2.80;;;27.00;2.60;;;;;;5011089;28;20182;-88
2022/06/19 13:25:34;;;;;;;6.40;2.90;;;26.70;4.90;;;;;;5037174;28;20541;-88
2022/06/19 13:28:12;;;;;;;4.85;2.47;;;26.70;12.30;;;;;;5021636;28;20189;-88
2022/06/19 13:30:59;;;;;;;5.97;2.88;;;26.90;20.60;;;;;;5015986;28;20691;-88
2022/06/19 13:33:35;;;;;;;6.43;3.22;;;26.90;16.90;;;;;;5011792;28;20605;-87
2022/06/19 13:36:11;;;;;;;5.38;2.95;;;27.10;18.70;;;;;;5022102;28;20274;-87
2022/06/19 13:38:55;;;;;;;4.50;2.80;;;27.00;5.00;;;;;;5009512;28;20186;-88